createdAt,value
2023-02-19T00:00:36.168Z,100341.69
2023-02-19T00:03:39.989Z,100337.16
2023-02-19T00:06:43.973Z,100345.09
2023-02-19T00:09:47.027Z,100335.25
2023-02-19T00:12:49.601Z,100339.34
2023-02-19T00:15:52.512Z,100341.50
2023-02-19T00:18:56.693Z,100346.19
2023-02-19T00:21:59.755Z,100338.47
2023-02-19T00:25:02.632Z,100349.37
2023-02-19T00:28:05.770Z,100340.66
2023-02-19T00:31:18.634Z,100333.00
2023-02-19T00:34:21.546Z,100335.50
2023-02-19T00:37:24.154Z,100327.00
2023-02-19T00:40:27.108Z,100323.62
2023-02-19T00:43:29.713Z,100321.87
2023-02-19T00:46:41.226Z,100328.34
2023-02-19T00:49:44.554Z,100330.78
2023-02-19T00:52:47.444Z,100327.03
2023-02-19T00:55:50.089Z,100333.25
2023-02-19T00:58:53.457Z,100329.03
2023-02-19T01:01:56.797Z,100329.72
2023-02-19T01:04:59.861Z,100341.53
2023-02-19T01:08:02.452Z,100338.97
2023-02-19T01:11:07.670Z,100336.53
2023-02-19T01:14:10.756Z,100337.09
2023-02-19T01:17:13.702Z,100331.63
2023-02-19T01:20:16.756Z,100322.94
2023-02-19T01:23:19.882Z,100323.81
2023-02-19T01:26:25.399Z,100321.53
2023-02-19T01:29:28.264Z,100325.13
2023-02-19T01:32:31.196Z,100309.81
2023-02-19T01:35:34.928Z,100317.47
2023-02-19T01:38:37.477Z,100312.88
2023-02-19T01:41:41.775Z,100321.13
2023-02-19T01:44:47.270Z,100326.84
2023-02-19T01:47:56.976Z,100332.72
2023-02-19T01:50:59.574Z,100335.50
2023-02-19T01:54:09.013Z,100329.66
2023-02-19T01:57:19.298Z,100323.78
2023-02-19T02:00:24.841Z,100325.94
2023-02-19T02:03:30.223Z,100327.50
2023-02-19T02:06:52.254Z,100312.19
2023-02-19T02:10:15.195Z,100298.75
2023-02-19T02:13:18.752Z,100307.91
2023-02-19T02:16:49.208Z,100301.69
2023-02-19T02:20:20.448Z,100292.75
2023-02-19T02:23:51.855Z,100281.75
2023-02-19T02:26:57.388Z,100259.53
2023-02-19T02:30:21.492Z,100266.50
2023-02-19T02:33:42.713Z,100268.53
2023-02-19T02:36:49.808Z,100276.31
2023-02-19T02:39:54.420Z,100273.75
2023-02-19T02:43:00.843Z,100274.31
2023-02-19T02:46:04.026Z,100273.59
2023-02-19T02:49:12.908Z,100296.81
2023-02-19T02:52:38.839Z,100292.44
2023-02-19T02:55:44.892Z,100281.44
2023-02-19T02:58:50.310Z,100288.22
2023-02-19T03:02:14.469Z,100296.78
2023-02-19T03:05:41.055Z,100291.59
2023-02-19T03:09:08.578Z,100304.19
2023-02-19T03:12:36.389Z,100307.38
2023-02-19T03:16:03.851Z,100311.41
2023-02-19T03:19:19.627Z,100300.72
2023-02-19T03:22:30.954Z,100304.59
2023-02-19T03:25:55.600Z,100298.47
2023-02-19T03:29:19.874Z,100307.41
2023-02-19T03:32:36.432Z,100311.59
2023-02-19T03:35:47.481Z,100317.00
2023-02-19T03:38:57.377Z,100309.13
2023-02-19T03:42:02.415Z,100297.75
2023-02-19T03:45:47.637Z,100313.25
2023-02-19T03:49:01.323Z,100308.19
2023-02-19T03:52:26.116Z,100329.97
2023-02-19T03:55:45.301Z,100331.09
2023-02-19T03:59:02.875Z,100327.31
2023-02-19T04:02:15.842Z,100315.94
2023-02-19T04:05:25.920Z,100315.94
2023-02-19T04:08:31.642Z,100320.50
2023-02-19T04:11:36.794Z,100311.47
2023-02-19T04:14:49.250Z,100317.88
2023-02-19T04:18:00.483Z,100316.72
2023-02-19T04:21:05.577Z,100314.69
2023-02-19T04:24:16.959Z,100317.78
2023-02-19T04:27:19.815Z,100312.69
2023-02-19T04:30:22.880Z,100317.22
2023-02-19T04:33:25.653Z,100312.44
2023-02-19T04:36:28.663Z,100324.72
2023-02-19T04:39:31.638Z,100316.50
2023-02-19T04:42:34.607Z,100310.97
2023-02-19T04:45:38.362Z,100323.62
2023-02-19T04:48:43.121Z,100320.34
2023-02-19T04:51:45.813Z,100315.97
2023-02-19T04:54:50.825Z,100325.28
2023-02-19T04:57:53.362Z,100320.22
2023-02-19T05:00:56.516Z,100309.78
2023-02-19T05:03:59.227Z,100301.75
2023-02-19T05:07:02.098Z,100303.41
2023-02-19T05:10:04.963Z,100304.81
2023-02-19T05:13:09.730Z,100302.84
2023-02-19T05:16:16.147Z,100293.00
2023-02-19T05:19:19.232Z,100297.75
2023-02-19T05:22:21.957Z,100300.97
2023-02-19T05:25:26.006Z,100303.44
2023-02-19T05:28:29.037Z,100306.13
2023-02-19T05:31:33.846Z,100315.28
2023-02-19T05:34:36.614Z,100311.22
2023-02-19T05:37:39.461Z,100315.13
2023-02-19T05:40:42.487Z,100315.34
2023-02-19T05:43:47.124Z,100319.22
2023-02-19T05:46:52.004Z,100298.47
2023-02-19T05:49:55.983Z,100298.37
2023-02-19T05:53:02.520Z,100307.53
2023-02-19T05:56:17.857Z,100311.59
2023-02-19T05:59:22.955Z,100307.47
2023-02-19T06:02:25.933Z,100310.19
2023-02-19T06:05:28.880Z,100322.84
2023-02-19T06:08:31.500Z,100325.00
2023-02-19T06:11:35.684Z,100332.88
2023-02-19T06:14:38.373Z,100327.78
2023-02-19T06:17:41.253Z,100322.69
2023-02-19T06:20:43.834Z,100306.72
2023-02-19T06:23:47.329Z,100308.59
2023-02-19T06:26:50.171Z,100303.78
2023-02-19T06:29:53.193Z,100288.94
2023-02-19T06:32:56.266Z,100296.41
2023-02-19T06:36:04.311Z,100303.91
2023-02-19T06:39:07.255Z,100295.69
2023-02-19T06:42:10.454Z,100288.22
2023-02-19T06:45:12.970Z,100286.41
2023-02-19T06:48:16.160Z,100277.59
2023-02-19T06:51:22.674Z,100277.53
2023-02-19T06:54:26.079Z,100293.19
2023-02-19T06:57:28.715Z,100303.72
2023-02-19T07:00:31.708Z,100295.22
2023-02-19T07:03:34.317Z,100280.47
2023-02-19T07:06:38.368Z,100290.53
2023-02-19T07:09:41.234Z,100301.41
2023-02-19T07:12:44.462Z,100300.19
2023-02-19T07:15:47.180Z,100305.91
2023-02-19T07:18:50.180Z,100297.53
2023-02-19T07:21:53.062Z,100295.22
2023-02-19T07:24:56.117Z,100297.06
2023-02-19T07:27:59.274Z,100286.03
2023-02-19T07:31:04.542Z,100289.72
2023-02-19T07:34:07.393Z,100291.28
2023-02-19T07:37:11.033Z,100283.91
2023-02-19T07:40:13.757Z,100284.78
2023-02-19T07:43:16.662Z,100273.53
2023-02-19T07:46:19.941Z,100268.19
2023-02-19T07:49:23.328Z,100267.84
2023-02-19T07:52:26.214Z,100276.81
2023-02-19T07:55:29.135Z,100272.31
2023-02-19T07:58:33.213Z,100281.97
2023-02-19T08:01:54.951Z,100286.16
2023-02-19T08:04:58.929Z,100289.75
2023-02-19T08:08:01.516Z,100306.06
2023-02-19T08:11:25.132Z,100301.69
2023-02-19T08:14:28.572Z,100316.94
2023-02-19T08:17:31.543Z,100311.41
2023-02-19T08:20:34.200Z,100317.88
2023-02-19T08:23:37.729Z,100317.41
2023-02-19T08:26:40.331Z,100315.47
2023-02-19T08:29:43.174Z,100318.22
2023-02-19T08:32:45.985Z,100328.06
2023-02-19T08:35:48.893Z,100323.28
2023-02-19T08:38:51.659Z,100327.94
2023-02-19T08:41:58.155Z,100328.16
2023-02-19T08:45:00.737Z,100315.84
2023-02-19T08:48:03.955Z,100303.72
2023-02-19T08:51:10.020Z,100307.41
2023-02-19T08:54:13.294Z,100309.75
2023-02-19T08:57:16.192Z,100302.47
2023-02-19T09:00:19.572Z,100302.97
2023-02-19T09:03:22.170Z,100300.47
2023-02-19T09:06:25.244Z,100315.13
2023-02-19T09:09:27.952Z,100293.81
2023-02-19T09:12:31.060Z,100308.47
2023-02-19T09:15:34.165Z,100316.38
2023-02-19T09:18:37.969Z,100302.34
2023-02-19T09:21:40.539Z,100298.78
2023-02-19T09:24:44.065Z,100305.81
2023-02-19T09:27:47.156Z,100307.41
2023-02-19T09:30:50.422Z,100305.47
2023-02-19T09:33:52.950Z,100300.44
2023-02-19T09:36:55.913Z,100306.22
2023-02-19T09:39:58.748Z,100291.16
2023-02-19T09:43:05.492Z,100293.66
2023-02-19T09:46:21.217Z,100279.22
2023-02-19T09:49:37.523Z,100278.13
2023-02-19T09:52:50.219Z,100272.38
2023-02-19T09:55:53.673Z,100264.06
2023-02-19T09:58:59.523Z,100264.91
2023-02-19T10:02:24.829Z,100265.44
2023-02-19T10:05:28.325Z,100255.97
2023-02-19T10:08:35.692Z,100245.81
2023-02-19T10:11:39.281Z,100238.81
2023-02-19T10:14:47.879Z,100230.44
2023-02-19T10:17:51.401Z,100215.00
2023-02-19T10:20:54.837Z,100218.38
2023-02-19T10:24:02.749Z,100204.94
2023-02-19T10:27:11.444Z,100201.88
2023-02-19T10:30:24.864Z,100208.34
2023-02-19T10:33:28.623Z,100192.06
2023-02-19T10:36:42.557Z,100183.69
2023-02-19T10:39:50.446Z,100179.69
2023-02-19T10:42:58.918Z,100167.22
2023-02-19T10:46:04.948Z,100152.50
2023-02-19T10:49:19.794Z,100158.47
2023-02-19T10:52:34.095Z,100141.34
2023-02-19T10:55:38.505Z,100131.63
2023-02-19T10:58:44.859Z,100125.69
2023-02-19T11:02:15.707Z,100129.47
2023-02-19T11:05:20.101Z,100129.00
2023-02-19T11:08:24.192Z,100147.81
2023-02-19T11:11:39.838Z,100125.69
2023-02-19T11:14:44.318Z,100098.66
2023-02-19T11:17:59.670Z,100100.31
2023-02-19T11:21:04.919Z,100106.50
2023-02-19T11:24:25.202Z,100117.16
2023-02-19T11:27:28.315Z,100084.41
2023-02-19T11:30:33.301Z,100097.38
2023-02-19T11:33:44.705Z,100088.41
2023-02-19T11:37:13.582Z,100100.81
2023-02-19T11:40:16.811Z,100088.72
2023-02-19T11:43:47.358Z,100074.81
2023-02-19T11:47:15.516Z,100092.78
2023-02-19T11:50:27.043Z,100077.63
2023-02-19T11:53:33.638Z,100076.56
2023-02-19T11:56:41.733Z,100077.84
2023-02-19T12:00:00.584Z,100057.59
2023-02-19T12:03:29.502Z,100069.47
2023-02-19T12:06:55.546Z,100054.75
2023-02-19T12:10:20.481Z,100054.81
2023-02-19T12:13:42.188Z,100054.66
2023-02-19T12:16:47.793Z,100062.97
2023-02-19T12:20:09.670Z,100048.41
2023-02-19T12:23:51.052Z,100037.09
2023-02-19T12:27:17.154Z,100030.53
2023-02-19T12:30:48.337Z,100045.47
2023-02-19T12:34:15.657Z,100043.00
2023-02-19T12:37:24.576Z,100037.97
2023-02-19T12:40:41.401Z,100057.94
2023-02-19T12:44:13.353Z,100072.56
2023-02-19T12:47:21.540Z,100062.09
2023-02-19T12:50:27.603Z,100086.44
2023-02-19T12:53:39.525Z,100091.41
2023-02-19T12:56:57.093Z,100088.06
2023-02-19T13:00:07.568Z,100071.06
2023-02-19T13:03:41.578Z,100072.50
2023-02-19T13:06:58.531Z,100093.31
2023-02-19T13:10:36.880Z,100092.13
2023-02-19T13:13:49.492Z,100081.72
2023-02-19T13:17:01.043Z,100078.69
2023-02-19T13:20:22.473Z,100080.75
2023-02-19T13:23:59.661Z,100093.09
2023-02-19T13:27:17.577Z,100090.53
2023-02-19T13:30:51.059Z,100101.75
2023-02-19T13:34:09.879Z,100097.44
2023-02-19T13:37:14.902Z,100078.69
2023-02-19T13:40:35.497Z,100089.91
2023-02-19T13:43:39.147Z,100092.91
2023-02-19T13:46:44.077Z,100100.09
2023-02-19T13:49:51.796Z,100106.00
2023-02-19T13:52:56.656Z,100110.00
2023-02-19T13:56:00.116Z,100103.53
2023-02-19T13:59:23.894Z,100114.16
2023-02-19T14:02:35.294Z,100126.94
2023-02-19T14:06:09.750Z,100127.19
2023-02-19T14:09:37.250Z,100145.50
2023-02-19T14:12:40.420Z,100160.25
2023-02-19T14:15:49.006Z,100157.34
2023-02-19T14:18:52.814Z,100168.66
2023-02-19T14:21:55.973Z,100178.00
2023-02-19T14:25:00.559Z,100181.19
2023-02-19T14:28:06.254Z,100189.56
2023-02-19T14:31:18.791Z,100187.59
2023-02-19T14:34:26.960Z,100199.84
2023-02-19T14:37:32.609Z,100215.06
2023-02-19T14:40:39.543Z,100221.25
2023-02-19T14:43:45.150Z,100225.09
2023-02-19T14:46:53.549Z,100235.56
2023-02-19T14:50:25.799Z,100220.28
2023-02-19T14:53:29.994Z,100217.75
2023-02-19T14:56:35.582Z,100227.72
2023-02-19T14:59:38.514Z,100230.66
2023-02-19T15:02:43.181Z,100221.50
2023-02-19T15:05:46.512Z,100223.09
2023-02-19T15:08:53.454Z,100226.72
2023-02-19T15:11:57.880Z,100223.63
2023-02-19T15:15:04.578Z,100245.69
2023-02-19T15:18:07.695Z,100244.81
2023-02-19T15:21:28.594Z,100238.88
2023-02-19T15:24:31.923Z,100246.97
2023-02-19T15:27:35.528Z,100235.44
2023-02-19T15:30:39.994Z,100236.59
2023-02-19T15:33:51.655Z,100223.34
2023-02-19T15:37:00.269Z,100217.28
2023-02-19T15:40:07.754Z,100212.34
2023-02-19T15:43:23.495Z,100211.47
2023-02-19T15:46:26.982Z,100216.13
2023-02-19T15:49:46.716Z,100208.72
2023-02-19T15:53:18.221Z,100213.72
2023-02-19T15:56:29.480Z,100223.91
2023-02-19T15:59:47.989Z,100223.19
2023-02-19T16:02:51.342Z,100234.97
2023-02-19T16:06:21.755Z,100246.25
2023-02-19T16:09:29.926Z,100259.59
2023-02-19T16:12:34.020Z,100260.75
2023-02-19T16:15:39.330Z,100258.19
2023-02-19T16:18:48.005Z,100259.09
2023-02-19T16:21:52.536Z,100265.53
2023-02-19T16:24:58.974Z,100262.47
2023-02-19T16:28:13.901Z,100289.59
2023-02-19T16:31:21.583Z,100279.47
2023-02-19T16:34:42.314Z,100301.03
2023-02-19T16:38:03.433Z,100310.94
2023-02-19T16:41:13.949Z,100321.09
2023-02-19T16:44:35.620Z,100318.87
2023-02-19T16:47:41.570Z,100315.69
2023-02-19T16:50:46.288Z,100300.72
2023-02-19T16:53:49.125Z,100316.50
2023-02-19T16:56:51.931Z,100305.94
2023-02-19T16:59:54.755Z,100306.75
2023-02-19T17:03:02.999Z,100306.50
2023-02-19T17:06:05.978Z,100332.25
2023-02-19T17:09:09.702Z,100330.62
2023-02-19T17:12:15.129Z,100329.47
2023-02-19T17:15:18.795Z,100344.63
2023-02-19T17:18:22.220Z,100356.34
2023-02-19T17:21:31.876Z,100352.13
2023-02-19T17:24:34.843Z,100345.03
2023-02-19T17:27:38.445Z,100336.28
2023-02-19T17:30:41.651Z,100346.25
2023-02-19T17:33:44.964Z,100357.91
2023-02-19T17:36:48.291Z,100354.28
2023-02-19T17:39:52.209Z,100330.59
2023-02-19T17:42:55.043Z,100354.81
2023-02-19T17:45:58.218Z,100374.19
2023-02-19T17:49:01.131Z,100374.06
2023-02-19T17:52:04.963Z,100375.91
2023-02-19T17:55:08.964Z,100373.50
2023-02-19T17:58:13.713Z,100382.22
2023-02-19T18:01:17.000Z,100382.50
2023-02-19T18:04:20.765Z,100390.88
2023-02-19T18:07:23.877Z,100390.75
2023-02-19T18:10:27.970Z,100403.00
2023-02-19T18:13:30.822Z,100405.28
2023-02-19T18:16:33.983Z,100415.06
2023-02-19T18:19:36.724Z,100426.31
2023-02-19T18:22:42.367Z,100425.34
2023-02-19T18:25:45.426Z,100433.66
2023-02-19T18:28:48.703Z,100446.50
2023-02-19T18:31:51.666Z,100452.94
2023-02-19T18:34:58.768Z,100460.94
2023-02-19T18:38:01.994Z,100472.91
2023-02-19T18:41:11.905Z,100484.66
2023-02-19T18:44:23.977Z,100494.84
2023-02-19T18:47:27.671Z,100505.37
2023-02-19T18:50:30.594Z,100496.16
2023-02-19T18:53:33.803Z,100519.09
2023-02-19T18:56:43.722Z,100529.53
2023-02-19T18:59:47.711Z,100538.63
2023-02-19T19:02:51.504Z,100548.66
2023-02-19T19:05:55.337Z,100542.13
2023-02-19T19:08:58.582Z,100546.53
2023-02-19T19:12:02.429Z,100556.28
2023-02-19T19:15:05.628Z,100550.38
2023-02-19T19:18:09.039Z,100548.09
2023-02-19T19:21:15.357Z,100536.19
2023-02-19T19:24:18.709Z,100538.91
2023-02-19T19:27:22.024Z,100540.19
2023-02-19T19:30:25.688Z,100535.31
2023-02-19T19:33:28.712Z,100533.66
2023-02-19T19:36:32.255Z,100531.22
2023-02-19T19:39:35.383Z,100535.59
2023-02-19T19:42:39.187Z,100537.91
2023-02-19T19:45:42.309Z,100546.41
2023-02-19T19:48:47.164Z,100544.72
2023-02-19T19:51:50.475Z,100548.28
2023-02-19T19:54:55.026Z,100550.91
2023-02-19T19:57:57.881Z,100558.00
2023-02-19T20:01:02.282Z,100564.22
2023-02-19T20:04:06.148Z,100560.81
2023-02-19T20:07:09.874Z,100571.28
2023-02-19T20:10:14.452Z,100597.69
2023-02-19T20:13:18.959Z,100603.00
2023-02-19T20:16:28.514Z,100608.81
2023-02-19T20:19:31.200Z,100632.97
2023-02-19T20:22:36.371Z,100629.38
2023-02-19T20:25:39.245Z,100644.09
2023-02-19T20:28:45.200Z,100649.25
2023-02-19T20:31:50.266Z,100658.53
2023-02-19T20:34:53.588Z,100667.41
2023-02-19T20:37:56.481Z,100678.50
2023-02-19T20:40:59.820Z,100688.44
2023-02-19T20:44:03.295Z,100695.56
2023-02-19T20:47:06.495Z,100701.97
2023-02-19T20:50:10.039Z,100709.03
2023-02-19T20:53:13.783Z,100722.63
2023-02-19T20:56:16.663Z,100726.44
2023-02-19T20:59:22.258Z,100730.94
2023-02-19T21:02:29.376Z,100731.69
2023-02-19T21:05:32.637Z,100738.41
2023-02-19T21:08:36.511Z,100732.44
2023-02-19T21:11:42.911Z,100742.88
2023-02-19T21:14:45.833Z,100736.94
2023-02-19T21:17:49.516Z,100753.06
2023-02-19T21:20:52.410Z,100755.97
2023-02-19T21:23:57.339Z,100764.00
2023-02-19T21:27:00.582Z,100765.03
2023-02-19T21:30:05.231Z,100775.63
2023-02-19T21:33:10.017Z,100769.88
2023-02-19T21:36:21.526Z,100772.97
2023-02-19T21:39:27.482Z,100801.16
2023-02-19T21:42:30.477Z,100792.47
2023-02-19T21:45:33.350Z,100784.81
2023-02-19T21:48:36.240Z,100789.34
2023-02-19T21:51:41.834Z,100795.34
2023-02-19T21:54:44.895Z,100790.03
2023-02-19T21:57:47.537Z,100790.19
2023-02-19T22:00:50.758Z,100798.44
2023-02-19T22:03:54.942Z,100788.88
2023-02-19T22:06:57.685Z,100788.91
2023-02-19T22:10:00.660Z,100797.84
2023-02-19T22:13:04.288Z,100801.19
2023-02-19T22:16:07.646Z,100804.00
2023-02-19T22:19:12.121Z,100791.69
2023-02-19T22:22:15.279Z,100802.06
2023-02-19T22:25:17.803Z,100801.38
2023-02-19T22:28:20.696Z,100811.00
2023-02-19T22:31:24.723Z,100807.78
2023-02-19T22:34:27.703Z,100802.53
2023-02-19T22:37:30.201Z,100830.69
2023-02-19T22:40:33.084Z,100825.53
2023-02-19T22:43:35.751Z,100823.91
2023-02-19T22:46:38.849Z,100829.19
2023-02-19T22:49:43.592Z,100839.59
2023-02-19T22:52:46.767Z,100821.22
2023-02-19T22:55:49.480Z,100828.28
2023-02-19T22:58:53.563Z,100861.53
2023-02-19T23:01:57.368Z,100830.81
2023-02-19T23:05:01.468Z,100848.41
2023-02-19T23:08:04.419Z,100842.44
2023-02-19T23:11:07.412Z,100855.38
2023-02-19T23:14:10.010Z,100863.50
2023-02-19T23:17:13.021Z,100874.00
2023-02-19T23:20:15.725Z,100864.53
2023-02-19T23:23:18.849Z,100880.16
2023-02-19T23:26:24.105Z,100890.75
2023-02-19T23:29:28.074Z,100917.09
2023-02-19T23:32:30.707Z,100916.28
2023-02-19T23:35:33.640Z,100905.75
2023-02-19T23:38:36.410Z,100907.59
2023-02-19T23:41:46.154Z,100913.66
2023-02-19T23:44:49.438Z,100912.00
2023-02-19T23:47:52.358Z,100913.06
2023-02-19T23:50:56.123Z,100929.53
2023-02-19T23:53:59.216Z,100935.53
2023-02-19T23:57:01.796Z,100931.38
